createdAt,value
2022-11-26T00:00:31.623Z,96.06
2022-11-26T00:02:59.516Z,98.03
2022-11-26T00:05:32.545Z,97.02
2022-11-26T00:08:02.041Z,97.39
2022-11-26T00:10:32.833Z,95.90
2022-11-26T00:13:02.704Z,95.47
2022-11-26T00:15:32.421Z,94.87
2022-11-26T00:18:00.285Z,95.23
2022-11-26T00:20:31.965Z,95.24
2022-11-26T00:23:03.216Z,94.67
2022-11-26T00:25:44.117Z,94.68
2022-11-26T00:28:27.892Z,95.85
2022-11-26T00:30:57.893Z,95.88
2022-11-26T00:33:28.941Z,96.22
2022-11-26T00:35:59.354Z,96.04
2022-11-26T00:38:27.402Z,96.18
2022-11-26T00:40:55.278Z,96.21
2022-11-26T00:43:24.474Z,95.94
2022-11-26T00:45:54.767Z,96.02
2022-11-26T00:48:22.718Z,96.54
2022-11-26T00:50:52.653Z,96.19
2022-11-26T00:53:23.521Z,96.18
2022-11-26T00:55:51.896Z,95.50
2022-11-26T00:58:26.771Z,95.65
2022-11-26T01:00:56.570Z,95.72
2022-11-26T01:07:49.167Z,95.42
2022-11-26T01:10:20.797Z,95.21
2022-11-26T01:12:52.427Z,96.06
2022-11-26T01:19:41.089Z,95.78
2022-11-26T01:22:20.017Z,95.28
2022-11-26T01:24:48.365Z,95.63
2022-11-26T01:27:16.600Z,95.94
2022-11-26T01:29:46.749Z,95.84
2022-11-26T01:32:14.743Z,95.62
2022-11-26T01:34:45.970Z,95.80
2022-11-26T01:37:15.075Z,95.14
2022-11-26T01:39:42.942Z,95.79
2022-11-26T01:42:26.103Z,96.88
2022-11-26T01:44:53.932Z,95.36
2022-11-26T01:47:24.298Z,96.04
2022-11-26T01:50:29.392Z,95.95
2022-11-26T01:53:03.945Z,95.43
2022-11-26T01:55:37.217Z,95.54
2022-11-26T01:58:12.152Z,95.34
2022-11-26T02:00:40.532Z,95.17
2022-11-26T02:03:09.214Z,95.11
2022-11-26T02:05:43.579Z,94.79
2022-11-26T02:08:13.617Z,94.80
2022-11-26T02:10:41.476Z,94.34
2022-11-26T02:13:09.349Z,94.79
2022-11-26T02:15:44.786Z,95.19
2022-11-26T02:18:13.108Z,95.10
2022-11-26T02:20:52.328Z,94.93
2022-11-26T02:23:57.329Z,94.63
2022-11-26T02:26:56.542Z,95.39
2022-11-26T02:29:30.496Z,94.74
2022-11-26T02:32:05.360Z,94.71
2022-11-26T02:34:41.372Z,95.02
2022-11-26T02:37:14.212Z,94.79
2022-11-26T02:39:41.943Z,94.64
2022-11-26T02:42:24.745Z,94.72
2022-11-26T02:44:53.799Z,97.04
2022-11-26T02:47:25.291Z,97.94
2022-11-26T02:49:55.066Z,98.44
2022-11-26T02:52:24.513Z,99.16
2022-11-26T02:54:53.894Z,98.46
2022-11-26T02:57:26.765Z,98.13
2022-11-26T02:59:54.848Z,97.04
2022-11-26T03:02:29.218Z,97.37
2022-11-26T03:05:01.489Z,97.05
2022-11-26T03:07:32.021Z,96.55
2022-11-26T03:10:02.267Z,96.38
2022-11-26T03:12:30.953Z,96.23
2022-11-26T03:14:59.008Z,95.89
2022-11-26T03:17:28.217Z,95.21
2022-11-26T03:19:56.096Z,95.66
2022-11-26T03:22:23.836Z,96.01
2022-11-26T03:24:51.646Z,95.90
2022-11-26T03:27:19.633Z,95.48
2022-11-26T03:29:47.499Z,95.94
2022-11-26T03:32:15.300Z,95.67
2022-11-26T03:34:44.542Z,95.84
2022-11-26T03:37:12.574Z,95.71
2022-11-26T03:39:40.499Z,95.02
2022-11-26T03:46:27.659Z,95.59
2022-11-26T03:48:57.717Z,96.60
2022-11-26T03:51:26.962Z,96.35
2022-11-26T03:53:54.865Z,95.91
2022-11-26T03:56:25.121Z,95.90
2022-11-26T03:58:52.994Z,95.39
2022-11-26T04:01:20.982Z,95.67
2022-11-26T04:03:48.887Z,95.19
2022-11-26T04:06:16.683Z,94.80
2022-11-26T04:08:45.935Z,94.04
2022-11-26T04:11:16.134Z,94.58
2022-11-26T04:13:43.973Z,95.13
2022-11-26T04:16:11.878Z,95.63
2022-11-26T04:18:39.787Z,96.21
2022-11-26T04:21:08.649Z,96.79
2022-11-26T04:23:37.195Z,97.18
2022-11-26T04:26:06.916Z,96.37
2022-11-26T04:28:34.838Z,96.10
2022-11-26T04:31:02.752Z,94.54
2022-11-26T04:33:32.606Z,94.84
2022-11-26T04:36:00.810Z,94.49
2022-11-26T04:38:28.598Z,94.13
2022-11-26T04:40:56.509Z,94.76
2022-11-26T04:43:25.732Z,94.49
2022-11-26T04:45:56.117Z,94.78
2022-11-26T04:48:23.958Z,94.27
2022-11-26T04:50:53.846Z,94.39
2022-11-26T04:53:22.158Z,94.48
2022-11-26T04:55:50.576Z,94.69
2022-11-26T04:58:21.870Z,93.76
2022-11-26T05:00:51.625Z,93.76
2022-11-26T05:03:19.865Z,93.93
2022-11-26T05:05:47.765Z,93.13
2022-11-26T05:08:15.591Z,93.48
2022-11-26T05:10:43.463Z,94.54
2022-11-26T05:13:11.418Z,99.18
2022-11-26T05:15:39.344Z,99.86
2022-11-26T05:18:08.627Z,99.21
2022-11-26T05:20:36.444Z,97.81
2022-11-26T05:23:04.318Z,98.40
2022-11-26T05:25:32.190Z,98.10
2022-11-26T05:28:00.000Z,97.64
2022-11-26T05:30:27.897Z,98.50
2022-11-26T05:32:55.707Z,99.67
2022-11-26T05:35:24.892Z,99.58
2022-11-26T05:37:52.838Z,99.35
2022-11-26T05:40:20.926Z,100.00
2022-11-26T05:42:48.842Z,99.37
2022-11-26T05:45:16.838Z,99.67
2022-11-26T05:47:44.640Z,98.63
2022-11-26T05:50:13.123Z,100.00
2022-11-26T05:52:42.299Z,100.00
2022-11-26T05:55:11.517Z,98.64
2022-11-26T05:57:39.372Z,98.79
2022-11-26T06:00:08.580Z,97.80
2022-11-26T06:02:39.928Z,97.45
2022-11-26T06:05:09.098Z,96.54
2022-11-26T06:07:40.597Z,97.90
2022-11-26T06:10:13.575Z,100.00
2022-11-26T06:12:41.511Z,100.00
2022-11-26T06:15:10.322Z,100.00
2022-11-26T06:17:38.128Z,100.00
2022-11-26T06:20:07.271Z,99.73
2022-11-26T06:22:38.245Z,98.35
2022-11-26T06:25:07.194Z,98.29
2022-11-26T06:27:37.130Z,97.35
2022-11-26T06:30:09.241Z,97.38
2022-11-26T06:32:39.427Z,96.83
2022-11-26T06:35:07.712Z,96.88
2022-11-26T06:37:35.622Z,98.03
2022-11-26T06:40:03.558Z,97.05
2022-11-26T06:42:31.473Z,97.64
2022-11-26T06:45:00.757Z,97.62
2022-11-26T06:47:29.370Z,96.47
2022-11-26T06:49:57.258Z,96.53
2022-11-26T06:52:25.080Z,95.95
2022-11-26T06:54:52.958Z,96.22
2022-11-26T06:57:20.735Z,96.36
2022-11-26T06:59:48.580Z,96.38
2022-11-26T07:02:17.797Z,95.95
2022-11-26T07:04:45.672Z,95.96
2022-11-26T07:07:13.489Z,95.18
2022-11-26T07:09:44.390Z,94.07
2022-11-26T07:12:12.396Z,93.44
2022-11-26T07:14:45.857Z,92.13
2022-11-26T07:17:13.640Z,93.22
2022-11-26T07:19:42.789Z,93.14
2022-11-26T07:22:10.738Z,93.30
2022-11-26T07:24:38.616Z,93.13
2022-11-26T07:27:06.581Z,93.36
2022-11-26T07:29:37.342Z,92.80
2022-11-26T07:32:05.519Z,93.19
2022-11-26T07:34:35.873Z,92.97
2022-11-26T07:37:05.103Z,92.94
2022-11-26T07:39:33.085Z,93.38
2022-11-26T07:42:00.905Z,93.93
2022-11-26T07:44:28.798Z,94.61
2022-11-26T07:46:56.602Z,94.80
2022-11-26T07:49:24.421Z,94.74
2022-11-26T07:51:52.392Z,94.89
2022-11-26T07:54:21.655Z,95.29
2022-11-26T07:56:49.438Z,95.08
2022-11-26T07:59:17.191Z,95.21
2022-11-26T08:01:45.076Z,94.76
2022-11-26T08:04:12.987Z,94.64
2022-11-26T08:06:40.836Z,94.39
2022-11-26T08:09:11.785Z,94.32
2022-11-26T08:11:40.972Z,92.97
2022-11-26T08:14:11.743Z,93.35
2022-11-26T08:16:40.611Z,93.65
2022-11-26T08:19:12.212Z,93.30
2022-11-26T08:21:40.674Z,94.33
2022-11-26T08:24:09.661Z,94.80
2022-11-26T08:26:44.158Z,94.55
2022-11-26T08:29:12.501Z,94.43
2022-11-26T08:31:45.277Z,94.95
2022-11-26T08:34:15.944Z,94.30
2022-11-26T08:36:44.870Z,94.23
2022-11-26T08:39:14.213Z,94.09
2022-11-26T08:41:47.376Z,93.39
2022-11-26T08:44:18.362Z,92.84
2022-11-26T08:46:46.162Z,93.69
2022-11-26T08:49:15.531Z,93.77
2022-11-26T08:51:43.708Z,93.56
2022-11-26T08:54:11.841Z,93.02
2022-11-26T08:56:39.782Z,93.26
2022-11-26T08:59:08.941Z,91.57
2022-11-26T09:01:36.857Z,91.51
2022-11-26T09:04:05.669Z,90.65
2022-11-26T09:06:36.731Z,89.98
2022-11-26T09:09:15.075Z,90.77
2022-11-26T09:11:46.158Z,92.59
2022-11-26T09:14:17.180Z,93.87
2022-11-26T09:16:45.672Z,92.71
2022-11-26T09:19:15.092Z,93.47
2022-11-26T09:21:43.246Z,92.72
2022-11-26T09:24:11.412Z,91.55
2022-11-26T09:26:42.051Z,89.35
2022-11-26T09:29:15.919Z,90.21
2022-11-26T09:32:15.605Z,90.08
2022-11-26T09:34:34.596Z,88.57
2022-11-26T09:37:02.565Z,87.13
2022-11-26T09:39:32.736Z,86.53
2022-11-26T09:42:06.310Z,85.99
2022-11-26T09:44:47.939Z,87.71
2022-11-26T09:47:19.397Z,87.83
2022-11-26T09:49:58.140Z,88.91
2022-11-26T09:52:29.557Z,88.77
2022-11-26T09:55:09.230Z,88.40
2022-11-26T09:57:42.567Z,86.31
2022-11-26T10:00:23.708Z,85.77
2022-11-26T10:02:55.993Z,87.03
2022-11-26T10:05:32.976Z,85.51
2022-11-26T10:08:11.174Z,84.64
2022-11-26T10:10:48.027Z,85.08
2022-11-26T10:13:23.372Z,83.01
2022-11-26T10:16:01.890Z,81.16
2022-11-26T10:18:39.658Z,81.45
2022-11-26T10:21:27.389Z,81.78
2022-11-26T10:24:14.635Z,80.10
2022-11-26T10:26:43.164Z,77.21
2022-11-26T10:29:24.210Z,77.36
2022-11-26T10:31:58.771Z,76.39
2022-11-26T10:34:39.504Z,79.49
2022-11-26T10:37:08.140Z,77.97
2022-11-26T10:39:35.928Z,76.86
2022-11-26T10:42:07.963Z,77.99
2022-11-26T10:44:40.382Z,76.65
2022-11-26T10:47:37.121Z,78.85
2022-11-26T10:50:45.975Z,77.26
2022-11-26T10:53:20.582Z,76.82
2022-11-26T10:55:48.524Z,77.87
2022-11-26T10:58:23.203Z,77.88
2022-11-26T11:00:58.062Z,77.80
2022-11-26T11:03:59.754Z,77.53
2022-11-26T11:06:38.281Z,76.14
2022-11-26T11:09:25.472Z,75.27
2022-11-26T11:12:17.752Z,70.16
2022-11-26T11:14:47.177Z,72.03
2022-11-26T11:17:30.877Z,72.01
2022-11-26T11:20:04.843Z,73.99
2022-11-26T11:22:32.762Z,75.88
2022-11-26T11:25:01.326Z,75.40
2022-11-26T11:27:38.582Z,78.08
2022-11-26T11:30:08.218Z,77.05
2022-11-26T11:32:37.915Z,77.29
2022-11-26T11:35:30.240Z,76.63
2022-11-26T11:37:59.328Z,74.63
2022-11-26T11:40:30.511Z,72.47
2022-11-26T11:43:01.235Z,72.04
2022-11-26T11:45:35.464Z,70.05
2022-11-26T11:48:18.581Z,70.53
2022-11-26T11:51:05.793Z,68.51
2022-11-26T11:53:40.541Z,71.57
2022-11-26T11:56:26.107Z,72.92
2022-11-26T11:59:36.274Z,71.85
2022-11-26T12:02:32.204Z,73.40
2022-11-26T12:05:15.276Z,73.19
2022-11-26T12:07:52.799Z,71.94
2022-11-26T12:10:28.721Z,71.67
2022-11-26T12:13:01.631Z,73.48
2022-11-26T12:15:31.296Z,74.22
2022-11-26T12:18:04.892Z,76.18
2022-11-26T12:20:37.597Z,74.79
2022-11-26T12:23:24.816Z,77.44
2022-11-26T12:25:56.682Z,74.18
2022-11-26T12:28:28.873Z,74.73
2022-11-26T12:30:59.609Z,75.84
2022-11-26T12:33:32.970Z,75.33
2022-11-26T12:36:08.652Z,75.56
2022-11-26T12:38:45.540Z,76.15
2022-11-26T12:41:20.311Z,77.17
2022-11-26T12:43:54.159Z,77.07
2022-11-26T12:46:27.860Z,77.28
2022-11-26T12:49:05.335Z,75.66
2022-11-26T12:51:42.016Z,74.62
2022-11-26T12:54:17.900Z,73.54
2022-11-26T12:56:55.006Z,73.67
2022-11-26T13:15:34.456Z,80.92
2022-11-26T13:18:03.592Z,79.45
2022-11-26T13:20:51.968Z,79.27
2022-11-26T13:23:38.168Z,76.57
2022-11-26T13:26:28.656Z,76.83
2022-11-26T13:29:24.227Z,75.97
2022-11-26T13:32:13.604Z,74.85
2022-11-26T13:35:06.005Z,74.42
2022-11-26T13:37:55.424Z,75.74
2022-11-26T13:40:58.921Z,76.96
2022-11-26T13:44:20.676Z,76.34
2022-11-26T13:46:52.268Z,74.73
2022-11-26T13:49:26.358Z,73.99
2022-11-26T13:52:02.471Z,75.24
2022-11-26T13:54:37.845Z,78.27
2022-11-26T13:57:11.690Z,76.97
2022-11-26T13:59:47.130Z,76.59
2022-11-26T14:02:42.591Z,76.08
2022-11-26T14:05:14.458Z,76.72
2022-11-26T14:07:43.131Z,77.21
2022-11-26T14:10:43.501Z,76.32
2022-11-26T14:13:13.490Z,75.90
2022-11-26T14:15:56.323Z,77.78
2022-11-26T14:19:02.916Z,77.82
2022-11-26T14:21:31.540Z,76.65
2022-11-26T14:24:01.675Z,76.10
2022-11-26T14:26:34.343Z,77.23
2022-11-26T14:29:13.082Z,78.16
2022-11-26T14:31:47.557Z,78.51
2022-11-26T14:34:19.354Z,78.71
2022-11-26T14:36:56.685Z,78.32
2022-11-26T14:39:25.653Z,78.85
2022-11-26T14:42:00.517Z,78.67
2022-11-26T14:44:34.288Z,79.54
2022-11-26T14:47:11.729Z,79.79
2022-11-26T14:49:46.352Z,80.18
2022-11-26T14:52:19.575Z,80.84
2022-11-26T14:54:50.222Z,80.71
2022-11-26T14:57:23.792Z,81.36
2022-11-26T14:59:59.704Z,80.79
2022-11-26T15:02:30.465Z,81.93
2022-11-26T15:05:00.116Z,82.02
2022-11-26T15:07:29.751Z,81.83
2022-11-26T15:10:05.761Z,82.80
2022-11-26T15:17:12.955Z,84.17
2022-11-26T15:19:42.627Z,86.00
2022-11-26T15:22:21.959Z,87.13
2022-11-26T15:24:52.948Z,87.54
2022-11-26T15:27:31.216Z,88.43
2022-11-26T15:29:59.019Z,88.15
2022-11-26T15:32:29.981Z,88.56
2022-11-26T15:35:22.505Z,87.46
2022-11-26T15:37:50.371Z,88.12
2022-11-26T15:40:24.409Z,86.66
2022-11-26T15:42:57.105Z,87.89
2022-11-26T15:45:34.307Z,89.50
2022-11-26T15:48:04.746Z,89.25
2022-11-26T15:50:36.440Z,88.67
2022-11-26T15:53:06.831Z,86.98
2022-11-26T15:55:37.575Z,85.24
2022-11-26T15:58:09.998Z,85.58
2022-11-26T16:00:40.701Z,85.27
2022-11-26T16:03:45.306Z,85.44
2022-11-26T16:06:29.252Z,85.87
2022-11-26T16:09:02.515Z,86.32
2022-11-26T16:11:33.921Z,85.13
2022-11-26T16:14:23.889Z,85.70
2022-11-26T16:16:52.824Z,86.34
2022-11-26T16:19:22.997Z,87.20
2022-11-26T16:21:53.192Z,88.34
2022-11-26T16:24:31.522Z,89.97
2022-11-26T16:27:01.747Z,89.71
2022-11-26T16:29:30.784Z,89.50
2022-11-26T16:31:59.226Z,88.49
2022-11-26T16:34:29.467Z,88.81
2022-11-26T16:37:02.823Z,87.78
2022-11-26T16:39:39.077Z,88.11
2022-11-26T16:42:15.486Z,89.22
2022-11-26T16:44:43.466Z,89.12
2022-11-26T16:47:15.981Z,90.07
2022-11-26T16:49:45.375Z,88.07
2022-11-26T16:52:15.906Z,88.97
2022-11-26T16:54:43.968Z,90.87
2022-11-26T16:57:16.935Z,92.54
2022-11-26T16:59:46.476Z,91.00
2022-11-26T17:02:18.004Z,90.96
2022-11-26T17:04:47.944Z,89.91
2022-11-26T17:07:19.591Z,89.08
2022-11-26T17:09:47.521Z,88.31
2022-11-26T17:12:19.944Z,88.61
2022-11-26T17:14:48.762Z,88.46
2022-11-26T17:17:22.103Z,88.26
2022-11-26T17:19:53.141Z,88.98
2022-11-26T17:22:21.455Z,88.89
2022-11-26T17:24:49.289Z,89.74
2022-11-26T17:27:19.624Z,89.99
2022-11-26T17:29:48.884Z,89.97
2022-11-26T17:36:44.388Z,90.48
2022-11-26T17:39:12.595Z,90.90
2022-11-26T17:41:40.499Z,89.51
2022-11-26T17:44:08.265Z,88.76
2022-11-26T17:47:00.996Z,88.73
2022-11-26T17:53:38.517Z,88.20
2022-11-26T17:56:06.814Z,90.16
2022-11-26T17:58:34.919Z,91.18
2022-11-26T18:01:02.786Z,91.33
2022-11-26T18:03:30.667Z,90.76
2022-11-26T18:05:58.423Z,90.81
2022-11-26T18:08:26.316Z,89.95
2022-11-26T18:10:57.832Z,90.66
2022-11-26T18:17:48.171Z,97.81
2022-11-26T18:20:19.534Z,96.52
2022-11-26T18:22:47.770Z,93.50
2022-11-26T18:25:15.731Z,92.58
2022-11-26T18:27:44.850Z,92.69
2022-11-26T18:30:13.824Z,91.76
2022-11-26T18:32:41.888Z,91.61
2022-11-26T18:35:10.572Z,91.52
2022-11-26T18:37:39.922Z,90.78
2022-11-26T18:40:11.355Z,89.67
2022-11-26T18:46:54.324Z,89.94
2022-11-26T18:49:22.310Z,89.07
2022-11-26T18:51:50.146Z,89.23
2022-11-26T18:54:17.880Z,89.12
2022-11-26T18:56:45.897Z,89.72
2022-11-26T18:59:14.760Z,91.08
2022-11-26T19:01:43.532Z,90.68
2022-11-26T19:08:48.411Z,91.68
2022-11-26T19:11:19.241Z,90.89
2022-11-26T19:13:47.980Z,90.10
2022-11-26T19:16:18.778Z,91.15
2022-11-26T19:18:47.673Z,91.13
2022-11-26T19:21:19.756Z,89.71
2022-11-26T19:23:49.984Z,90.40
2022-11-26T19:26:17.967Z,90.05
2022-11-26T19:37:36.206Z,90.24
2022-11-26T19:40:06.526Z,90.26
2022-11-26T19:42:34.378Z,90.71
2022-11-26T19:45:02.173Z,89.20
2022-11-26T19:47:30.007Z,88.74
2022-11-26T19:49:57.808Z,88.46
2022-11-26T19:52:25.563Z,88.73
2022-11-26T19:54:53.377Z,88.10
2022-11-26T19:57:22.639Z,89.48
2022-11-26T19:59:51.302Z,89.61
2022-11-26T20:02:19.732Z,89.55
2022-11-26T20:04:47.717Z,90.56
2022-11-26T20:07:15.597Z,89.83
2022-11-26T20:09:43.606Z,89.07
2022-11-26T20:12:11.724Z,88.83
2022-11-26T20:14:40.904Z,88.46
2022-11-26T20:17:08.904Z,88.78
2022-11-26T20:19:37.387Z,89.55
2022-11-26T20:22:05.865Z,89.77
2022-11-26T20:24:33.755Z,90.16
2022-11-26T20:27:01.517Z,91.28
2022-11-26T20:29:29.435Z,93.60
2022-11-26T20:31:58.584Z,94.43
2022-11-26T20:34:27.839Z,93.45
2022-11-26T20:36:55.767Z,92.46
2022-11-26T20:39:24.853Z,92.42
2022-11-26T20:41:52.820Z,92.21
2022-11-26T20:44:20.620Z,89.60
2022-11-26T20:46:50.492Z,88.22
2022-11-26T20:49:19.804Z,90.66
2022-11-26T20:51:51.011Z,91.09
2022-11-26T20:54:18.894Z,91.31
2022-11-26T20:56:46.745Z,90.02
2022-11-26T20:59:14.534Z,90.69
2022-11-26T21:01:42.388Z,90.32
2022-11-26T21:08:30.844Z,91.35
2022-11-26T21:11:03.558Z,90.53
2022-11-26T21:13:31.444Z,90.05
2022-11-26T21:16:02.496Z,89.41
2022-11-26T21:18:30.370Z,88.82
2022-11-26T21:20:58.797Z,89.20
2022-11-26T21:23:28.049Z,91.49
2022-11-26T21:25:57.460Z,92.48
2022-11-26T21:32:43.972Z,92.52
2022-11-26T21:35:11.724Z,92.75
2022-11-26T21:37:41.893Z,92.49
2022-11-26T21:40:11.051Z,93.86
2022-11-26T21:42:40.401Z,93.96
2022-11-26T21:49:30.868Z,92.62
2022-11-26T21:51:58.791Z,91.80
2022-11-26T21:54:27.436Z,90.49
2022-11-26T21:56:55.304Z,91.74
2022-11-26T21:59:24.675Z,91.38
2022-11-26T22:01:52.554Z,91.87
2022-11-26T22:04:20.825Z,92.01
2022-11-26T22:06:49.953Z,91.41
2022-11-26T22:09:18.305Z,91.74
2022-11-26T22:11:46.808Z,90.98
2022-11-26T22:14:16.613Z,91.08
2022-11-26T22:16:47.895Z,91.37
2022-11-26T22:19:17.460Z,92.81
2022-11-26T22:26:05.434Z,92.91
2022-11-26T22:28:33.374Z,92.54
2022-11-26T22:31:08.348Z,92.11
2022-11-26T22:33:37.634Z,92.05
2022-11-26T22:36:06.135Z,91.71
2022-11-26T22:38:34.303Z,93.01
2022-11-26T22:41:06.141Z,92.60
2022-11-26T22:43:34.329Z,92.68
2022-11-26T22:46:04.553Z,93.42
2022-11-26T22:48:32.757Z,93.48
2022-11-26T22:51:02.170Z,94.17
2022-11-26T22:53:30.167Z,94.56
2022-11-26T22:55:59.892Z,94.67
2022-11-26T22:58:28.933Z,95.05
2022-11-26T23:00:58.646Z,94.63
2022-11-26T23:03:28.326Z,95.46
2022-11-26T23:05:56.553Z,95.56
2022-11-26T23:08:25.709Z,96.34
2022-11-26T23:10:53.572Z,96.36
2022-11-26T23:13:21.473Z,96.60
2022-11-26T23:15:49.475Z,96.28
2022-11-26T23:18:17.729Z,96.14
2022-11-26T23:20:45.548Z,96.08
2022-11-26T23:23:14.824Z,95.90
2022-11-26T23:25:44.082Z,95.88
2022-11-26T23:28:12.132Z,95.36
2022-11-26T23:30:39.937Z,95.18
2022-11-26T23:33:07.867Z,95.51
2022-11-26T23:39:54.203Z,95.11
2022-11-26T23:42:23.773Z,94.65
2022-11-26T23:44:51.626Z,94.40
2022-11-26T23:47:19.435Z,94.09
2022-11-26T23:49:47.250Z,93.98
2022-11-26T23:52:15.177Z,93.25
2022-11-26T23:54:42.979Z,93.14
2022-11-26T23:57:15.014Z,93.54
2022-11-26T23:59:47.375Z,94.73
